sensor_id;sensor_type;location;lat;lon;timestamp;temperature;humidity
23597;DHT22;40226;50.874;4.394;2022-08-27T00:01:24;19.00;99.90
23597;DHT22;40226;50.874;4.394;2022-08-27T00:03:52;19.10;99.90
23597;DHT22;40226;50.874;4.394;2022-08-27T00:06:18;19.00;99.90
23597;DHT22;40226;50.874;4.394;2022-08-27T00:08:45;19.20;99.90
23597;DHT22;40226;50.874;4.394;2022-08-27T00:11:12;19.20;99.90
23597;DHT22;40226;50.874;4.394;2022-08-27T00:13:39;19.30;99.90
23597;DHT22;40226;50.874;4.394;2022-08-27T00:16:06;19.20;99.90
23597;DHT22;40226;50.874;4.394;2022-08-27T00:18:33;19.00;99.90
23597;DHT22;40226;50.874;4.394;2022-08-27T00:21:00;19.00;99.90
23597;DHT22;40226;50.874;4.394;2022-08-27T00:23:26;19.30;99.90
23597;DHT22;40226;50.874;4.394;2022-08-27T00:25:51;19.40;99.90
23597;DHT22;40226;50.874;4.394;2022-08-27T00:28:17;19.60;99.90
23597;DHT22;40226;50.874;4.394;2022-08-27T00:30:43;19.50;99.90
23597;DHT22;40226;50.874;4.394;2022-08-27T00:33:08;19.50;99.90
23597;DHT22;40226;50.874;4.394;2022-08-27T00:35:34;19.60;99.90
23597;DHT22;40226;50.874;4.394;2022-08-27T00:38:00;19.60;99.90
23597;DHT22;40226;50.874;4.394;2022-08-27T00:40:26;19.40;99.90
23597;DHT22;40226;50.874;4.394;2022-08-27T00:42:52;19.40;99.90
23597;DHT22;40226;50.874;4.394;2022-08-27T00:45:20;19.50;99.90
23597;DHT22;40226;50.874;4.394;2022-08-27T00:47:50;19.60;99.90
23597;DHT22;40226;50.874;4.394;2022-08-27T00:50:32;19.60;99.90
23597;DHT22;40226;50.874;4.394;2022-08-27T00:53:02;19.50;99.90
23597;DHT22;40226;50.874;4.394;2022-08-27T00:55:40;19.40;99.90
23597;DHT22;40226;50.874;4.394;2022-08-27T00:58:25;19.50;99.90
23597;DHT22;40226;50.874;4.394;2022-08-27T01:00:52;19.50;99.90
23597;DHT22;40226;50.874;4.394;2022-08-27T01:03:17;19.20;99.90
23597;DHT22;40226;50.874;4.394;2022-08-27T01:05:46;19.50;99.90
23597;DHT22;40226;50.874;4.394;2022-08-27T01:08:17;19.50;99.90
23597;DHT22;40226;50.874;4.394;2022-08-27T01:10:44;19.50;99.90
23597;DHT22;40226;50.874;4.394;2022-08-27T01:13:13;19.40;99.90
23597;DHT22;40226;50.874;4.394;2022-08-27T01:15:40;19.30;99.90
23597;DHT22;40226;50.874;4.394;2022-08-27T01:18:07;19.20;99.90
23597;DHT22;40226;50.874;4.394;2022-08-27T01:20:56;19.30;99.90
23597;DHT22;40226;50.874;4.394;2022-08-27T01:23:38;19.30;99.90
23597;DHT22;40226;50.874;4.394;2022-08-27T01:26:08;19.20;99.90
23597;DHT22;40226;50.874;4.394;2022-08-27T01:28:34;19.20;99.90
23597;DHT22;40226;50.874;4.394;2022-08-27T01:31:04;19.10;99.90
23597;DHT22;40226;50.874;4.394;2022-08-27T01:33:30;19.00;99.90
23597;DHT22;40226;50.874;4.394;2022-08-27T01:35:56;18.80;99.90
23597;DHT22;40226;50.874;4.394;2022-08-27T01:38:21;18.60;99.90
23597;DHT22;40226;50.874;4.394;2022-08-27T01:40:49;18.70;99.90
23597;DHT22;40226;50.874;4.394;2022-08-27T01:43:15;18.60;99.90
23597;DHT22;40226;50.874;4.394;2022-08-27T01:45:45;18.50;99.90
23597;DHT22;40226;50.874;4.394;2022-08-27T01:48:13;18.60;99.90
23597;DHT22;40226;50.874;4.394;2022-08-27T01:50:40;18.50;99.90
23597;DHT22;40226;50.874;4.394;2022-08-27T01:53:12;18.40;99.90
23597;DHT22;40226;50.874;4.394;2022-08-27T01:55:39;18.50;99.90
23597;DHT22;40226;50.874;4.394;2022-08-27T01:58:06;18.60;99.90
23597;DHT22;40226;50.874;4.394;2022-08-27T02:00:38;18.60;99.90
23597;DHT22;40226;50.874;4.394;2022-08-27T02:03:05;18.40;99.90
23597;DHT22;40226;50.874;4.394;2022-08-27T02:05:32;18.40;99.90
23597;DHT22;40226;50.874;4.394;2022-08-27T02:07:57;18.40;99.90
23597;DHT22;40226;50.874;4.394;2022-08-27T02:10:27;18.40;99.90
23597;DHT22;40226;50.874;4.394;2022-08-27T02:12:53;18.60;99.90
23597;DHT22;40226;50.874;4.394;2022-08-27T02:15:19;18.60;99.90
23597;DHT22;40226;50.874;4.394;2022-08-27T02:17:45;18.60;99.90
23597;DHT22;40226;50.874;4.394;2022-08-27T02:20:13;18.60;99.90
23597;DHT22;40226;50.874;4.394;2022-08-27T02:22:39;18.60;99.90
23597;DHT22;40226;50.874;4.394;2022-08-27T02:25:07;18.60;99.90
23597;DHT22;40226;50.874;4.394;2022-08-27T02:27:33;18.50;99.90
23597;DHT22;40226;50.874;4.394;2022-08-27T02:29:59;18.60;99.90
23597;DHT22;40226;50.874;4.394;2022-08-27T02:32:25;18.60;99.90
23597;DHT22;40226;50.874;4.394;2022-08-27T02:34:52;18.50;99.90
23597;DHT22;40226;50.874;4.394;2022-08-27T02:37:17;18.10;99.90
23597;DHT22;40226;50.874;4.394;2022-08-27T02:39:43;18.00;99.90
23597;DHT22;40226;50.874;4.394;2022-08-27T02:42:08;18.00;99.90
23597;DHT22;40226;50.874;4.394;2022-08-27T02:44:34;17.90;99.90
23597;DHT22;40226;50.874;4.394;2022-08-27T02:47:01;17.80;99.90
23597;DHT22;40226;50.874;4.394;2022-08-27T02:49:28;17.80;99.90
23597;DHT22;40226;50.874;4.394;2022-08-27T02:51:55;17.80;99.90
23597;DHT22;40226;50.874;4.394;2022-08-27T02:54:22;17.90;99.90
23597;DHT22;40226;50.874;4.394;2022-08-27T02:56:48;17.90;99.90
23597;DHT22;40226;50.874;4.394;2022-08-27T02:59:15;18.00;99.90
23597;DHT22;40226;50.874;4.394;2022-08-27T03:01:40;18.10;99.90
23597;DHT22;40226;50.874;4.394;2022-08-27T03:04:06;18.10;99.90
23597;DHT22;40226;50.874;4.394;2022-08-27T03:06:31;18.20;99.90
23597;DHT22;40226;50.874;4.394;2022-08-27T03:08:57;18.10;99.90
23597;DHT22;40226;50.874;4.394;2022-08-27T03:11:22;18.00;99.90
23597;DHT22;40226;50.874;4.394;2022-08-27T03:13:48;18.00;99.90
23597;DHT22;40226;50.874;4.394;2022-08-27T03:16:14;18.20;99.90
23597;DHT22;40226;50.874;4.394;2022-08-27T03:18:40;18.20;99.90
23597;DHT22;40226;50.874;4.394;2022-08-27T03:21:06;18.10;99.90
23597;DHT22;40226;50.874;4.394;2022-08-27T03:23:33;18.00;99.90
23597;DHT22;40226;50.874;4.394;2022-08-27T03:26:02;18.00;99.90
23597;DHT22;40226;50.874;4.394;2022-08-27T03:28:32;18.00;99.90
23597;DHT22;40226;50.874;4.394;2022-08-27T03:31:01;18.10;99.90
23597;DHT22;40226;50.874;4.394;2022-08-27T03:33:29;18.00;99.90
23597;DHT22;40226;50.874;4.394;2022-08-27T03:35:56;17.90;99.90
23597;DHT22;40226;50.874;4.394;2022-08-27T03:38:22;17.90;99.90
23597;DHT22;40226;50.874;4.394;2022-08-27T03:40:48;17.90;99.90
23597;DHT22;40226;50.874;4.394;2022-08-27T03:43:15;17.90;99.90
23597;DHT22;40226;50.874;4.394;2022-08-27T03:45:42;18.10;99.90
23597;DHT22;40226;50.874;4.394;2022-08-27T03:48:09;18.10;99.90
23597;DHT22;40226;50.874;4.394;2022-08-27T03:50:37;18.10;99.90
23597;DHT22;40226;50.874;4.394;2022-08-27T03:53:03;18.10;99.90
23597;DHT22;40226;50.874;4.394;2022-08-27T03:55:29;18.20;99.90
23597;DHT22;40226;50.874;4.394;2022-08-27T03:57:55;18.20;99.90
23597;DHT22;40226;50.874;4.394;2022-08-27T04:00:21;18.10;99.90
23597;DHT22;40226;50.874;4.394;2022-08-27T04:02:49;18.00;99.90
23597;DHT22;40226;50.874;4.394;2022-08-27T04:05:15;17.90;99.90
23597;DHT22;40226;50.874;4.394;2022-08-27T04:07:42;17.90;99.90
23597;DHT22;40226;50.874;4.394;2022-08-27T04:10:09;17.90;99.90
23597;DHT22;40226;50.874;4.394;2022-08-27T04:12:36;18.00;99.90
23597;DHT22;40226;50.874;4.394;2022-08-27T04:15:02;17.90;99.90
23597;DHT22;40226;50.874;4.394;2022-08-27T04:17:29;18.00;99.90
23597;DHT22;40226;50.874;4.394;2022-08-27T04:19:55;18.20;99.90
23597;DHT22;40226;50.874;4.394;2022-08-27T04:22:20;18.00;99.90
23597;DHT22;40226;50.874;4.394;2022-08-27T04:24:48;17.90;99.90
23597;DHT22;40226;50.874;4.394;2022-08-27T04:27:14;18.00;99.90
23597;DHT22;40226;50.874;4.394;2022-08-27T04:29:41;17.90;99.90
23597;DHT22;40226;50.874;4.394;2022-08-27T04:32:07;17.70;99.90
23597;DHT22;40226;50.874;4.394;2022-08-27T04:34:32;17.90;99.90
23597;DHT22;40226;50.874;4.394;2022-08-27T04:36:58;18.10;99.90
23597;DHT22;40226;50.874;4.394;2022-08-27T04:39:26;18.20;99.90
23597;DHT22;40226;50.874;4.394;2022-08-27T04:41:53;18.20;99.90
23597;DHT22;40226;50.874;4.394;2022-08-27T04:44:21;17.90;99.90
23597;DHT22;40226;50.874;4.394;2022-08-27T04:46:47;17.80;99.90
23597;DHT22;40226;50.874;4.394;2022-08-27T04:49:14;17.60;99.90
23597;DHT22;40226;50.874;4.394;2022-08-27T04:51:40;17.70;99.90
23597;DHT22;40226;50.874;4.394;2022-08-27T04:54:07;17.70;99.90
23597;DHT22;40226;50.874;4.394;2022-08-27T04:56:35;17.80;99.90
23597;DHT22;40226;50.874;4.394;2022-08-27T04:59:02;17.70;99.90
23597;DHT22;40226;50.874;4.394;2022-08-27T05:01:29;17.60;99.90
23597;DHT22;40226;50.874;4.394;2022-08-27T05:03:56;17.70;99.90
23597;DHT22;40226;50.874;4.394;2022-08-27T05:06:23;17.80;99.90
23597;DHT22;40226;50.874;4.394;2022-08-27T05:08:50;17.60;99.90
23597;DHT22;40226;50.874;4.394;2022-08-27T05:11:17;17.40;99.90
23597;DHT22;40226;50.874;4.394;2022-08-27T05:13:44;17.40;99.90
23597;DHT22;40226;50.874;4.394;2022-08-27T05:16:18;17.40;99.90
23597;DHT22;40226;50.874;4.394;2022-08-27T05:18:45;17.60;99.90
23597;DHT22;40226;50.874;4.394;2022-08-27T05:21:23;17.60;99.90
23597;DHT22;40226;50.874;4.394;2022-08-27T05:23:49;17.70;99.90
23597;DHT22;40226;50.874;4.394;2022-08-27T05:26:15;18.10;99.90
23597;DHT22;40226;50.874;4.394;2022-08-27T05:28:41;18.20;99.90
23597;DHT22;40226;50.874;4.394;2022-08-27T05:31:09;18.30;99.90
23597;DHT22;40226;50.874;4.394;2022-08-27T05:33:36;18.40;99.90
23597;DHT22;40226;50.874;4.394;2022-08-27T05:36:06;18.20;99.90
23597;DHT22;40226;50.874;4.394;2022-08-27T05:38:33;18.30;99.90
23597;DHT22;40226;50.874;4.394;2022-08-27T05:41:19;18.20;99.90
23597;DHT22;40226;50.874;4.394;2022-08-27T05:43:46;17.90;99.90
23597;DHT22;40226;50.874;4.394;2022-08-27T05:46:14;18.10;99.90
23597;DHT22;40226;50.874;4.394;2022-08-27T05:48:41;18.20;99.90
23597;DHT22;40226;50.874;4.394;2022-08-27T05:51:08;18.30;99.90
23597;DHT22;40226;50.874;4.394;2022-08-27T05:53:34;18.20;99.90
23597;DHT22;40226;50.874;4.394;2022-08-27T05:56:00;18.20;99.90
23597;DHT22;40226;50.874;4.394;2022-08-27T05:58:26;18.40;99.90
23597;DHT22;40226;50.874;4.394;2022-08-27T06:01:10;18.30;99.90
23597;DHT22;40226;50.874;4.394;2022-08-27T06:03:36;18.30;99.90
23597;DHT22;40226;50.874;4.394;2022-08-27T06:06:07;18.30;99.90
23597;DHT22;40226;50.874;4.394;2022-08-27T06:08:34;18.30;99.90
23597;DHT22;40226;50.874;4.394;2022-08-27T06:11:01;18.30;99.90
23597;DHT22;40226;50.874;4.394;2022-08-27T06:13:31;18.40;99.90
23597;DHT22;40226;50.874;4.394;2022-08-27T06:16:09;18.40;99.90
23597;DHT22;40226;50.874;4.394;2022-08-27T06:18:39;18.70;99.90
23597;DHT22;40226;50.874;4.394;2022-08-27T06:21:06;18.80;99.90
23597;DHT22;40226;50.874;4.394;2022-08-27T06:23:33;18.60;99.90
23597;DHT22;40226;50.874;4.394;2022-08-27T06:26:00;18.90;99.90
23597;DHT22;40226;50.874;4.394;2022-08-27T06:28:27;19.00;99.90
23597;DHT22;40226;50.874;4.394;2022-08-27T06:31:10;19.10;99.90
23597;DHT22;40226;50.874;4.394;2022-08-27T06:33:37;19.00;99.90
23597;DHT22;40226;50.874;4.394;2022-08-27T06:36:05;19.10;99.90
23597;DHT22;40226;50.874;4.394;2022-08-27T06:38:32;19.20;99.90
23597;DHT22;40226;50.874;4.394;2022-08-27T06:40:57;19.20;99.90
23597;DHT22;40226;50.874;4.394;2022-08-27T06:43:24;19.40;99.90
23597;DHT22;40226;50.874;4.394;2022-08-27T06:45:51;19.40;99.90
23597;DHT22;40226;50.874;4.394;2022-08-27T06:48:17;19.50;99.90
23597;DHT22;40226;50.874;4.394;2022-08-27T06:50:42;19.50;99.90
23597;DHT22;40226;50.874;4.394;2022-08-27T06:53:08;19.50;99.90
23597;DHT22;40226;50.874;4.394;2022-08-27T06:55:42;19.40;99.90
23597;DHT22;40226;50.874;4.394;2022-08-27T06:58:09;19.50;99.90
23597;DHT22;40226;50.874;4.394;2022-08-27T07:00:35;19.50;99.90
23597;DHT22;40226;50.874;4.394;2022-08-27T07:03:02;19.50;99.90
23597;DHT22;40226;50.874;4.394;2022-08-27T07:05:33;19.60;99.90
23597;DHT22;40226;50.874;4.394;2022-08-27T07:08:00;19.50;99.90
23597;DHT22;40226;50.874;4.394;2022-08-27T07:10:26;19.30;99.90
23597;DHT22;40226;50.874;4.394;2022-08-27T07:12:52;19.30;99.90
23597;DHT22;40226;50.874;4.394;2022-08-27T07:15:18;19.10;99.90
23597;DHT22;40226;50.874;4.394;2022-08-27T07:17:43;19.10;99.90
23597;DHT22;40226;50.874;4.394;2022-08-27T07:20:10;19.20;99.90
23597;DHT22;40226;50.874;4.394;2022-08-27T07:22:39;19.40;99.90
23597;DHT22;40226;50.874;4.394;2022-08-27T07:25:06;19.50;99.90
23597;DHT22;40226;50.874;4.394;2022-08-27T07:27:33;19.60;99.90
23597;DHT22;40226;50.874;4.394;2022-08-27T07:29:59;19.50;99.90
23597;DHT22;40226;50.874;4.394;2022-08-27T07:32:24;19.50;99.90
23597;DHT22;40226;50.874;4.394;2022-08-27T07:34:50;19.50;99.90
23597;DHT22;40226;50.874;4.394;2022-08-27T07:37:16;19.90;99.90
23597;DHT22;40226;50.874;4.394;2022-08-27T07:39:41;20.00;99.90
23597;DHT22;40226;50.874;4.394;2022-08-27T07:42:07;20.20;99.90
23597;DHT22;40226;50.874;4.394;2022-08-27T07:44:51;20.20;99.90
23597;DHT22;40226;50.874;4.394;2022-08-27T07:47:17;20.20;99.90
23597;DHT22;40226;50.874;4.394;2022-08-27T07:49:43;20.10;99.90
23597;DHT22;40226;50.874;4.394;2022-08-27T07:52:08;20.00;99.90
23597;DHT22;40226;50.874;4.394;2022-08-27T07:54:34;20.10;99.90
23597;DHT22;40226;50.874;4.394;2022-08-27T07:57:00;20.40;99.90
23597;DHT22;40226;50.874;4.394;2022-08-27T07:59:26;20.50;99.90
23597;DHT22;40226;50.874;4.394;2022-08-27T08:01:52;20.60;99.90
23597;DHT22;40226;50.874;4.394;2022-08-27T08:04:18;20.50;99.90
23597;DHT22;40226;50.874;4.394;2022-08-27T08:06:45;20.50;99.90
23597;DHT22;40226;50.874;4.394;2022-08-27T08:09:10;20.40;99.90
23597;DHT22;40226;50.874;4.394;2022-08-27T08:11:36;20.60;99.90
23597;DHT22;40226;50.874;4.394;2022-08-27T08:14:02;20.70;99.90
23597;DHT22;40226;50.874;4.394;2022-08-27T08:16:27;20.70;99.90
23597;DHT22;40226;50.874;4.394;2022-08-27T08:18:53;20.80;99.90
23597;DHT22;40226;50.874;4.394;2022-08-27T08:21:19;20.90;99.90
23597;DHT22;40226;50.874;4.394;2022-08-27T08:23:44;20.80;99.90
23597;DHT22;40226;50.874;4.394;2022-08-27T08:26:11;20.90;99.90
23597;DHT22;40226;50.874;4.394;2022-08-27T08:28:38;21.00;99.90
23597;DHT22;40226;50.874;4.394;2022-08-27T08:31:05;21.10;99.90
23597;DHT22;40226;50.874;4.394;2022-08-27T08:33:31;21.40;99.90
23597;DHT22;40226;50.874;4.394;2022-08-27T08:36:11;21.40;99.90
23597;DHT22;40226;50.874;4.394;2022-08-27T08:38:38;21.40;99.90
23597;DHT22;40226;50.874;4.394;2022-08-27T08:41:06;21.50;99.90
23597;DHT22;40226;50.874;4.394;2022-08-27T08:43:44;21.60;99.90
23597;DHT22;40226;50.874;4.394;2022-08-27T08:46:35;21.70;99.90
23597;DHT22;40226;50.874;4.394;2022-08-27T08:49:16;21.80;99.90
23597;DHT22;40226;50.874;4.394;2022-08-27T08:51:43;21.90;99.90
23597;DHT22;40226;50.874;4.394;2022-08-27T08:54:15;21.70;99.90
23597;DHT22;40226;50.874;4.394;2022-08-27T08:56:46;21.70;99.90
23597;DHT22;40226;50.874;4.394;2022-08-27T09:02:07;21.80;99.90
23597;DHT22;40226;50.874;4.394;2022-08-27T09:04:34;21.80;99.90
23597;DHT22;40226;50.874;4.394;2022-08-27T09:07:07;21.90;99.90
23597;DHT22;40226;50.874;4.394;2022-08-27T09:12:17;22.10;99.90
23597;DHT22;40226;50.874;4.394;2022-08-27T09:17:36;21.80;99.90
23597;DHT22;40226;50.874;4.394;2022-08-27T09:20:04;22.30;99.90
23597;DHT22;40226;50.874;4.394;2022-08-27T09:25:23;22.50;99.90
23597;DHT22;40226;50.874;4.394;2022-08-27T09:27:52;22.30;99.90
23597;DHT22;40226;50.874;4.394;2022-08-27T09:30:21;22.20;99.90
23597;DHT22;40226;50.874;4.394;2022-08-27T09:33:00;22.30;99.90
23597;DHT22;40226;50.874;4.394;2022-08-27T09:35:27;22.20;99.90
23597;DHT22;40226;50.874;4.394;2022-08-27T09:37:55;22.00;99.90
23597;DHT22;40226;50.874;4.394;2022-08-27T09:40:44;22.10;99.90
23597;DHT22;40226;50.874;4.394;2022-08-27T09:43:26;22.10;99.90
23597;DHT22;40226;50.874;4.394;2022-08-27T09:45:58;22.20;99.90
23597;DHT22;40226;50.874;4.394;2022-08-27T09:48:30;22.20;99.90
23597;DHT22;40226;50.874;4.394;2022-08-27T09:51:01;22.50;99.90
23597;DHT22;40226;50.874;4.394;2022-08-27T09:53:37;22.50;99.90
23597;DHT22;40226;50.874;4.394;2022-08-27T09:56:06;22.50;99.90
23597;DHT22;40226;50.874;4.394;2022-08-27T09:58:51;22.90;99.90
23597;DHT22;40226;50.874;4.394;2022-08-27T10:01:30;23.40;99.90
23597;DHT22;40226;50.874;4.394;2022-08-27T10:04:36;23.30;99.90
23597;DHT22;40226;50.874;4.394;2022-08-27T10:15:16;23.00;99.90
23597;DHT22;40226;50.874;4.394;2022-08-27T10:20:46;23.30;99.90
23597;DHT22;40226;50.874;4.394;2022-08-27T10:42:22;24.30;99.90
23597;DHT22;40226;50.874;4.394;2022-08-27T10:50:23;24.20;99.90
23597;DHT22;40226;50.874;4.394;2022-08-27T10:53:00;24.50;99.90
23597;DHT22;40226;50.874;4.394;2022-08-27T10:55:31;24.30;99.90
23597;DHT22;40226;50.874;4.394;2022-08-27T11:01:25;24.10;99.90
23597;DHT22;40226;50.874;4.394;2022-08-27T11:04:07;24.10;99.90
23597;DHT22;40226;50.874;4.394;2022-08-27T11:12:06;24.30;99.90
23597;DHT22;40226;50.874;4.394;2022-08-27T11:14:54;24.20;99.90
23597;DHT22;40226;50.874;4.394;2022-08-27T11:20:15;24.10;99.90
23597;DHT22;40226;50.874;4.394;2022-08-27T11:27:50;24.30;99.90
23597;DHT22;40226;50.874;4.394;2022-08-27T11:30:33;24.20;99.90
23597;DHT22;40226;50.874;4.394;2022-08-27T11:33:34;24.30;99.90
23597;DHT22;40226;50.874;4.394;2022-08-27T11:41:49;24.70;99.90
23597;DHT22;40226;50.874;4.394;2022-08-27T11:44:18;24.50;99.90
23597;DHT22;40226;50.874;4.394;2022-08-27T11:46:49;24.70;99.90
23597;DHT22;40226;50.874;4.394;2022-08-27T11:49:50;24.70;99.90
23597;DHT22;40226;50.874;4.394;2022-08-27T11:57:47;24.70;99.90
23597;DHT22;40226;50.874;4.394;2022-08-27T12:00:21;24.70;99.90
23597;DHT22;40226;50.874;4.394;2022-08-27T12:03:02;24.80;99.90
23597;DHT22;40226;50.874;4.394;2022-08-27T12:05:35;24.80;99.90
23597;DHT22;40226;50.874;4.394;2022-08-27T12:11:18;24.60;99.90
23597;DHT22;40226;50.874;4.394;2022-08-27T12:17:03;24.20;99.90
23597;DHT22;40226;50.874;4.394;2022-08-27T12:25:25;23.70;99.90
23597;DHT22;40226;50.874;4.394;2022-08-27T12:28:03;23.70;99.90
23597;DHT22;40226;50.874;4.394;2022-08-27T12:30:34;23.70;99.90
23597;DHT22;40226;50.874;4.394;2022-08-27T12:33:31;24.00;99.90
23597;DHT22;40226;50.874;4.394;2022-08-27T12:36:05;24.30;99.90
23597;DHT22;40226;50.874;4.394;2022-08-27T12:38:54;24.80;99.90
23597;DHT22;40226;50.874;4.394;2022-08-27T12:41:30;24.90;99.90
23597;DHT22;40226;50.874;4.394;2022-08-27T12:44:09;25.00;99.90
23597;DHT22;40226;50.874;4.394;2022-08-27T12:46:45;25.40;99.90
23597;DHT22;40226;50.874;4.394;2022-08-27T12:49:18;26.00;99.90
23597;DHT22;40226;50.874;4.394;2022-08-27T12:51:45;26.20;99.90
23597;DHT22;40226;50.874;4.394;2022-08-27T13:03:03;26.20;99.90
23597;DHT22;40226;50.874;4.394;2022-08-27T13:05:41;25.90;99.90
23597;DHT22;40226;50.874;4.394;2022-08-27T13:08:22;25.80;99.90
23597;DHT22;40226;50.874;4.394;2022-08-27T13:10:49;25.10;99.90
23597;DHT22;40226;50.874;4.394;2022-08-27T13:13:18;25.00;99.90
23597;DHT22;40226;50.874;4.394;2022-08-27T13:15:56;24.50;99.90
23597;DHT22;40226;50.874;4.394;2022-08-27T13:18:26;24.20;99.90
23597;DHT22;40226;50.874;4.394;2022-08-27T13:21:01;24.00;99.90
23597;DHT22;40226;50.874;4.394;2022-08-27T13:23:27;24.00;99.90
23597;DHT22;40226;50.874;4.394;2022-08-27T13:26:04;23.90;99.90
23597;DHT22;40226;50.874;4.394;2022-08-27T13:28:31;23.90;99.90
23597;DHT22;40226;50.874;4.394;2022-08-27T13:30:58;23.50;99.90
23597;DHT22;40226;50.874;4.394;2022-08-27T13:33:26;23.80;99.90
23597;DHT22;40226;50.874;4.394;2022-08-27T13:35:53;23.70;99.90
23597;DHT22;40226;50.874;4.394;2022-08-27T13:38:22;23.80;99.90
23597;DHT22;40226;50.874;4.394;2022-08-27T13:43:42;24.00;99.90
23597;DHT22;40226;50.874;4.394;2022-08-27T13:46:15;24.00;99.90
23597;DHT22;40226;50.874;4.394;2022-08-27T13:48:42;23.90;99.90
23597;DHT22;40226;50.874;4.394;2022-08-27T13:51:09;23.60;99.90
23597;DHT22;40226;50.874;4.394;2022-08-27T13:53:35;23.40;99.90
23597;DHT22;40226;50.874;4.394;2022-08-27T13:56:28;23.50;99.90
23597;DHT22;40226;50.874;4.394;2022-08-27T14:05:05;24.10;99.90
23597;DHT22;40226;50.874;4.394;2022-08-27T14:07:37;23.80;99.90
23597;DHT22;40226;50.874;4.394;2022-08-27T14:10:20;23.80;99.90
23597;DHT22;40226;50.874;4.394;2022-08-27T14:13:03;24.00;99.90
23597;DHT22;40226;50.874;4.394;2022-08-27T14:15:34;23.70;99.90
23597;DHT22;40226;50.874;4.394;2022-08-27T14:18:02;23.90;99.90
23597;DHT22;40226;50.874;4.394;2022-08-27T14:20:28;24.00;99.90
23597;DHT22;40226;50.874;4.394;2022-08-27T14:22:54;24.20;99.90
23597;DHT22;40226;50.874;4.394;2022-08-27T14:25:20;24.30;99.90
23597;DHT22;40226;50.874;4.394;2022-08-27T14:27:49;24.30;99.90
23597;DHT22;40226;50.874;4.394;2022-08-27T14:30:22;24.30;99.90
23597;DHT22;40226;50.874;4.394;2022-08-27T14:32:48;24.40;99.90
23597;DHT22;40226;50.874;4.394;2022-08-27T14:35:15;24.30;99.90
23597;DHT22;40226;50.874;4.394;2022-08-27T14:37:42;24.40;99.90
23597;DHT22;40226;50.874;4.394;2022-08-27T14:40:09;24.40;99.90
23597;DHT22;40226;50.874;4.394;2022-08-27T14:42:35;24.10;99.90
23597;DHT22;40226;50.874;4.394;2022-08-27T14:45:01;23.90;99.90
23597;DHT22;40226;50.874;4.394;2022-08-27T14:47:27;23.90;99.90
23597;DHT22;40226;50.874;4.394;2022-08-27T14:49:53;24.20;99.90
23597;DHT22;40226;50.874;4.394;2022-08-27T14:52:19;24.50;99.90
23597;DHT22;40226;50.874;4.394;2022-08-27T14:54:44;24.30;99.90
23597;DHT22;40226;50.874;4.394;2022-08-27T14:57:10;24.50;99.90
23597;DHT22;40226;50.874;4.394;2022-08-27T14:59:36;24.50;99.90
23597;DHT22;40226;50.874;4.394;2022-08-27T15:02:07;24.70;99.90
23597;DHT22;40226;50.874;4.394;2022-08-27T15:04:34;24.60;99.90
23597;DHT22;40226;50.874;4.394;2022-08-27T15:06:59;24.70;99.90
23597;DHT22;40226;50.874;4.394;2022-08-27T15:09:25;24.80;99.90
23597;DHT22;40226;50.874;4.394;2022-08-27T15:11:51;24.80;99.90
23597;DHT22;40226;50.874;4.394;2022-08-27T15:14:24;24.70;99.90
23597;DHT22;40226;50.874;4.394;2022-08-27T15:16:51;24.30;99.90
23597;DHT22;40226;50.874;4.394;2022-08-27T15:19:18;24.50;99.90
23597;DHT22;40226;50.874;4.394;2022-08-27T15:21:46;24.50;99.90
23597;DHT22;40226;50.874;4.394;2022-08-27T15:24:23;24.20;99.90
23597;DHT22;40226;50.874;4.394;2022-08-27T15:26:50;24.20;99.90
23597;DHT22;40226;50.874;4.394;2022-08-27T15:29:16;23.90;99.90
23597;DHT22;40226;50.874;4.394;2022-08-27T15:31:42;23.90;99.90
23597;DHT22;40226;50.874;4.394;2022-08-27T15:34:09;24.10;99.90
23597;DHT22;40226;50.874;4.394;2022-08-27T15:36:34;24.10;99.90
23597;DHT22;40226;50.874;4.394;2022-08-27T15:39:01;24.00;99.90
23597;DHT22;40226;50.874;4.394;2022-08-27T15:41:27;24.10;99.90
23597;DHT22;40226;50.874;4.394;2022-08-27T15:43:53;23.90;99.90
23597;DHT22;40226;50.874;4.394;2022-08-27T15:46:18;23.90;99.90
23597;DHT22;40226;50.874;4.394;2022-08-27T15:48:44;23.90;99.90
23597;DHT22;40226;50.874;4.394;2022-08-27T15:51:10;23.70;99.90
23597;DHT22;40226;50.874;4.394;2022-08-27T15:53:38;23.80;99.90
23597;DHT22;40226;50.874;4.394;2022-08-27T15:56:04;23.70;99.90
23597;DHT22;40226;50.874;4.394;2022-08-27T15:58:31;23.70;99.90
23597;DHT22;40226;50.874;4.394;2022-08-27T16:01:12;23.70;99.90
23597;DHT22;40226;50.874;4.394;2022-08-27T16:03:40;23.80;99.90
23597;DHT22;40226;50.874;4.394;2022-08-27T16:06:06;23.80;99.90
23597;DHT22;40226;50.874;4.394;2022-08-27T16:08:33;23.70;99.90
23597;DHT22;40226;50.874;4.394;2022-08-27T16:10:58;23.60;99.90
23597;DHT22;40226;50.874;4.394;2022-08-27T16:13:24;23.70;99.90
23597;DHT22;40226;50.874;4.394;2022-08-27T16:15:51;23.70;99.90
23597;DHT22;40226;50.874;4.394;2022-08-27T16:18:23;23.80;99.90
23597;DHT22;40226;50.874;4.394;2022-08-27T16:20:49;23.70;99.90
23597;DHT22;40226;50.874;4.394;2022-08-27T16:23:15;23.80;99.90
23597;DHT22;40226;50.874;4.394;2022-08-27T16:25:40;23.60;99.90
23597;DHT22;40226;50.874;4.394;2022-08-27T16:28:06;23.50;99.90
23597;DHT22;40226;50.874;4.394;2022-08-27T16:30:32;23.60;99.90
23597;DHT22;40226;50.874;4.394;2022-08-27T16:32:57;23.90;99.90
23597;DHT22;40226;50.874;4.394;2022-08-27T16:35:23;23.50;99.90
23597;DHT22;40226;50.874;4.394;2022-08-27T16:37:49;23.30;99.90
23597;DHT22;40226;50.874;4.394;2022-08-27T16:40:15;23.40;99.90
23597;DHT22;40226;50.874;4.394;2022-08-27T16:42:46;23.60;99.90
23597;DHT22;40226;50.874;4.394;2022-08-27T16:45:13;23.90;99.90
23597;DHT22;40226;50.874;4.394;2022-08-27T16:47:40;23.90;99.90
23597;DHT22;40226;50.874;4.394;2022-08-27T16:50:40;24.00;99.90
23597;DHT22;40226;50.874;4.394;2022-08-27T16:53:14;23.80;99.90
23597;DHT22;40226;50.874;4.394;2022-08-27T16:55:42;23.50;99.90
23597;DHT22;40226;50.874;4.394;2022-08-27T16:58:20;23.40;99.90
23597;DHT22;40226;50.874;4.394;2022-08-27T17:00:49;23.50;99.90
23597;DHT22;40226;50.874;4.394;2022-08-27T17:03:16;23.30;99.90
23597;DHT22;40226;50.874;4.394;2022-08-27T17:05:42;23.30;99.90
23597;DHT22;40226;50.874;4.394;2022-08-27T17:08:07;23.30;99.90
23597;DHT22;40226;50.874;4.394;2022-08-27T17:10:37;23.60;99.90
23597;DHT22;40226;50.874;4.394;2022-08-27T17:13:05;23.50;99.90
23597;DHT22;40226;50.874;4.394;2022-08-27T17:15:31;23.60;99.90
23597;DHT22;40226;50.874;4.394;2022-08-27T17:17:57;23.50;99.90
23597;DHT22;40226;50.874;4.394;2022-08-27T17:20:24;23.50;99.90
23597;DHT22;40226;50.874;4.394;2022-08-27T17:22:50;23.60;99.90
23597;DHT22;40226;50.874;4.394;2022-08-27T17:25:16;23.60;99.90
23597;DHT22;40226;50.874;4.394;2022-08-27T17:27:41;23.50;99.90